createdAt,value
2019-04-04T00:00:49.252Z,27.27
2019-04-04T00:05:47.115Z,31.23
2019-04-04T00:08:15.620Z,27.17
2019-04-04T00:10:46.065Z,24.50
2019-04-04T00:13:14.395Z,20.75
2019-04-04T00:15:45.375Z,24.25
2019-04-04T00:18:12.981Z,19.32
2019-04-04T00:20:41.598Z,18.07
2019-04-04T00:23:10.076Z,24.60
2019-04-04T00:25:40.281Z,24.50
2019-04-04T00:28:08.679Z,26.17
2019-04-04T00:30:37.183Z,24.67
2019-04-04T00:33:06.658Z,23.85
2019-04-04T00:35:35.203Z,19.52
2019-04-04T00:38:06.694Z,19.20
2019-04-04T00:40:34.746Z,20.70
2019-04-04T00:43:03.367Z,17.70
2019-04-04T00:45:32.035Z,16.95
2019-04-04T00:48:01.100Z,19.45
2019-04-04T00:50:30.597Z,16.95
2019-04-04T00:52:59.088Z,19.45
2019-04-04T00:55:27.678Z,20.15
2019-04-04T00:57:56.258Z,18.15
2019-04-04T01:00:24.944Z,19.42
2019-04-04T01:02:58.231Z,21.10
2019-04-04T01:05:24.525Z,21.52
2019-04-04T01:07:52.977Z,16.90
2019-04-04T01:10:23.419Z,17.30
2019-04-04T01:12:52.213Z,17.95
2019-04-04T01:15:21.315Z,16.93
2019-04-04T01:17:49.812Z,18.30
2019-04-04T01:20:20.409Z,18.55
2019-04-04T01:22:48.630Z,20.25
2019-04-04T01:25:17.076Z,17.37
2019-04-04T01:27:45.577Z,14.95
2019-04-04T01:30:14.161Z,14.00
2019-04-04T01:32:44.447Z,19.55
2019-04-04T01:35:13.913Z,14.87
2019-04-04T01:37:42.367Z,16.20
2019-04-04T01:40:10.855Z,22.77
2019-04-04T01:42:39.345Z,17.40
2019-04-04T01:45:07.979Z,16.05
2019-04-04T01:47:36.488Z,19.20
2019-04-04T01:50:05.963Z,16.77
2019-04-04T01:52:34.469Z,21.93
2019-04-04T01:55:04.660Z,15.78
2019-04-04T01:57:33.064Z,14.55
2019-04-04T02:00:01.647Z,14.83
2019-04-04T02:02:30.127Z,15.25
2019-04-04T02:05:00.605Z,16.15
2019-04-04T02:07:29.748Z,13.28
2019-04-04T02:09:59.147Z,15.80
2019-04-04T02:12:27.551Z,15.75
2019-04-04T02:14:56.103Z,13.90
2019-04-04T02:17:25.547Z,11.28
2019-04-04T02:19:56.337Z,14.40
2019-04-04T02:22:24.207Z,16.50
2019-04-04T02:24:52.703Z,22.22
2019-04-04T02:27:21.235Z,16.00
2019-04-04T02:29:49.730Z,17.15
2019-04-04T02:32:19.865Z,16.77
2019-04-04T02:34:48.340Z,16.85
2019-04-04T02:37:20.637Z,17.82
2019-04-04T02:39:47.919Z,16.82
2019-04-04T02:42:21.096Z,19.73
2019-04-04T02:44:46.601Z,32.00
2019-04-04T02:47:17.474Z,32.53
2019-04-04T02:49:47.098Z,20.43
2019-04-04T02:52:15.577Z,18.37
2019-04-04T02:54:44.129Z,15.53
2019-04-04T02:57:12.644Z,17.67
2019-04-04T02:59:41.077Z,16.35
2019-04-04T03:02:09.699Z,15.75
2019-04-04T03:04:38.124Z,15.10
2019-04-04T03:07:06.625Z,14.50
2019-04-04T03:09:35.040Z,18.12
2019-04-04T03:12:03.562Z,19.55
2019-04-04T03:14:36.322Z,24.32
2019-04-04T03:17:02.211Z,16.25
2019-04-04T03:19:30.626Z,24.25
2019-04-04T03:21:59.124Z,18.75
2019-04-04T03:24:29.519Z,17.65
2019-04-04T03:26:57.865Z,20.48
2019-04-04T03:29:26.424Z,18.02
2019-04-04T03:31:54.941Z,17.52
2019-04-04T03:34:23.405Z,15.95
2019-04-04T03:36:51.863Z,15.35
2019-04-04T03:39:20.534Z,21.40
2019-04-04T03:41:49.233Z,18.60
2019-04-04T03:44:19.794Z,20.55
2019-04-04T03:46:47.928Z,16.23
2019-04-04T03:49:16.344Z,16.25
2019-04-04T03:51:44.848Z,20.37
2019-04-04T03:54:15.125Z,20.97
2019-04-04T03:56:43.621Z,26.50
2019-04-04T03:59:12.055Z,31.75
2019-04-04T04:01:45.443Z,19.70
2019-04-04T04:04:10.759Z,20.32
2019-04-04T04:06:42.136Z,20.20
2019-04-04T04:09:09.414Z,26.68
2019-04-04T04:11:38.336Z,29.70
2019-04-04T04:14:06.962Z,33.42
2019-04-04T04:16:36.199Z,42.13
2019-04-04T04:19:05.940Z,28.87
2019-04-04T04:21:34.541Z,25.25
2019-04-04T04:24:03.008Z,26.25
2019-04-04T04:26:31.501Z,36.63
2019-04-04T04:29:00.086Z,31.33
2019-04-04T04:31:28.592Z,31.68
2019-04-04T04:34:00.715Z,28.73
2019-04-04T04:36:27.211Z,41.88
2019-04-04T04:38:58.922Z,24.47
2019-04-04T04:41:25.892Z,42.17
2019-04-04T04:43:55.667Z,30.12
2019-04-04T04:46:24.141Z,27.30
2019-04-04T04:48:54.724Z,31.10
2019-04-04T04:51:24.790Z,36.60
2019-04-04T04:53:53.138Z,23.75
2019-04-04T04:56:21.565Z,28.95
2019-04-04T04:58:52.228Z,50.03
2019-04-04T05:01:20.755Z,36.17
2019-04-04T05:03:50.745Z,45.85
2019-04-04T05:06:19.526Z,31.65
2019-04-04T05:08:50.082Z,40.10
2019-04-04T05:11:19.210Z,26.17
2019-04-04T05:13:48.471Z,24.30
2019-04-04T05:16:16.928Z,21.80
2019-04-04T05:18:47.734Z,38.33
2019-04-04T05:21:24.984Z,32.98
2019-04-04T05:23:47.099Z,33.15
2019-04-04T05:26:15.852Z,24.00
2019-04-04T05:28:44.381Z,40.50
2019-04-04T05:31:13.998Z,41.30
2019-04-04T05:33:42.547Z,43.10
2019-04-04T05:36:11.127Z,44.93
2019-04-04T05:38:42.749Z,22.05
2019-04-04T05:41:09.744Z,36.75
2019-04-04T05:43:38.220Z,30.15
2019-04-04T05:46:06.685Z,27.60
2019-04-04T05:48:35.160Z,35.25
2019-04-04T05:51:04.829Z,37.65
2019-04-04T05:53:35.416Z,25.75
2019-04-04T05:56:06.231Z,22.00
2019-04-04T05:58:33.649Z,17.37
2019-04-04T06:01:02.642Z,27.73
2019-04-04T06:03:31.267Z,21.00
2019-04-04T06:06:01.329Z,17.05
2019-04-04T06:08:29.857Z,46.70
2019-04-04T06:11:02.367Z,57.45
2019-04-04T06:13:30.805Z,16.23
2019-04-04T06:15:59.386Z,17.92
2019-04-04T06:18:27.795Z,16.55
2019-04-04T06:20:56.418Z,17.45
2019-04-04T06:23:25.059Z,16.00
2019-04-04T06:25:54.325Z,20.27
2019-04-04T06:28:22.775Z,16.40
2019-04-04T06:30:53.429Z,27.25
2019-04-04T06:33:22.593Z,20.15
2019-04-04T06:35:51.045Z,14.00
2019-04-04T06:38:22.907Z,19.82
2019-04-04T06:40:50.967Z,30.97
2019-04-04T06:43:19.521Z,17.27
2019-04-04T06:45:48.003Z,14.87
2019-04-04T06:48:18.194Z,14.85
2019-04-04T06:50:46.771Z,15.70
2019-04-04T06:53:15.363Z,17.52
2019-04-04T06:55:43.957Z,19.05
2019-04-04T06:58:12.491Z,15.35
2019-04-04T07:00:42.179Z,15.45
2019-04-04T07:03:10.876Z,20.08
2019-04-04T07:05:39.520Z,13.53
2019-04-04T07:08:08.092Z,17.90
2019-04-04T07:10:36.912Z,15.43
2019-04-04T07:13:20.646Z,12.05
2019-04-04T07:15:46.321Z,12.07
2019-04-04T07:18:05.664Z,13.45
2019-04-04T07:20:34.155Z,13.88
2019-04-04T07:23:02.669Z,14.10
2019-04-04T07:25:31.135Z,15.08
2019-04-04T07:27:59.584Z,13.03
2019-04-04T07:30:28.475Z,20.00
2019-04-04T07:32:57.700Z,16.17
2019-04-04T07:35:27.891Z,13.15
2019-04-04T07:37:57.687Z,16.17
2019-04-04T07:40:26.278Z,11.18
2019-04-04T07:42:54.863Z,11.63
2019-04-04T07:45:25.962Z,13.03
2019-04-04T07:47:53.462Z,16.35
2019-04-04T07:50:21.911Z,18.65
2019-04-04T07:52:50.543Z,13.88
2019-04-04T07:55:18.995Z,11.75
2019-04-04T07:57:50.898Z,17.98
2019-04-04T08:00:17.593Z,11.15
2019-04-04T08:02:47.912Z,16.67
2019-04-04T08:05:16.422Z,15.40
2019-04-04T08:07:45.002Z,12.98
2019-04-04T08:10:20.468Z,13.10
2019-04-04T08:12:43.747Z,21.17
2019-04-04T08:15:14.114Z,12.33
2019-04-04T08:17:42.570Z,10.15
2019-04-04T08:20:11.186Z,16.35
2019-04-04T08:22:39.909Z,29.37
2019-04-04T08:25:08.630Z,10.95
2019-04-04T08:27:37.119Z,10.98
2019-04-04T08:30:07.255Z,12.18
2019-04-04T08:32:35.730Z,10.03
2019-04-04T08:35:06.172Z,17.57
2019-04-04T08:37:34.634Z,18.05
2019-04-04T08:40:04.239Z,20.77
2019-04-04T08:42:35.475Z,14.33
2019-04-04T08:45:07.930Z,12.78
2019-04-04T08:47:36.744Z,33.73
2019-04-04T08:50:06.302Z,20.43
2019-04-04T08:52:34.737Z,34.83
2019-04-04T08:55:03.285Z,16.82
2019-04-04T08:57:31.783Z,10.85
2019-04-04T09:00:00.298Z,20.30
2019-04-04T09:02:28.727Z,23.15
2019-04-04T09:04:57.323Z,15.23
2019-04-04T09:07:25.910Z,19.15
2019-04-04T09:09:54.613Z,21.80
2019-04-04T09:12:23.375Z,12.40
2019-04-04T09:14:51.788Z,10.55
2019-04-04T09:17:20.219Z,13.15
2019-04-04T09:19:48.666Z,6.97
2019-04-04T09:22:17.165Z,10.53
2019-04-04T09:24:45.743Z,15.58
2019-04-04T09:27:16.025Z,12.23
2019-04-04T09:29:44.647Z,15.95
2019-04-04T09:32:13.223Z,15.40
2019-04-04T09:34:41.705Z,19.52
2019-04-04T09:37:10.286Z,7.50
2019-04-04T09:39:38.792Z,9.80
2019-04-04T09:42:07.432Z,20.85
2019-04-04T09:44:35.831Z,10.13
2019-04-04T09:47:05.490Z,12.90
2019-04-04T09:49:34.419Z,11.88
2019-04-04T09:52:03.005Z,10.82
2019-04-04T09:54:31.507Z,16.70
2019-04-04T09:57:00.039Z,26.17
2019-04-04T09:59:28.646Z,13.95
2019-04-04T10:01:57.251Z,14.83
2019-04-04T10:04:25.666Z,13.75
2019-04-04T10:06:54.211Z,10.05
2019-04-04T10:09:23.256Z,10.30
2019-04-04T10:11:51.727Z,11.10
2019-04-04T10:14:20.336Z,10.75
2019-04-04T10:16:48.916Z,8.25
2019-04-04T10:19:17.490Z,10.98
2019-04-04T10:21:46.005Z,12.20
2019-04-04T10:24:14.587Z,12.28
2019-04-04T10:26:43.111Z,11.00
2019-04-04T10:29:11.544Z,20.85
2019-04-04T10:31:40.130Z,18.95
2019-04-04T10:34:08.607Z,18.37
2019-04-04T10:36:37.190Z,11.12
2019-04-04T10:39:08.852Z,13.08
2019-04-04T10:44:05.184Z,14.73
2019-04-04T10:46:33.662Z,14.47
2019-04-04T10:49:02.227Z,12.58
2019-04-04T10:51:33.035Z,10.90
2019-04-04T10:54:01.471Z,10.23
2019-04-04T10:56:31.901Z,15.00
2019-04-04T10:59:00.357Z,20.30
2019-04-04T11:01:28.939Z,17.48
2019-04-04T11:03:57.420Z,16.80
2019-04-04T11:06:25.976Z,11.08
2019-04-04T11:08:54.415Z,12.88
2019-04-04T11:11:23.998Z,8.58
2019-04-04T11:13:52.563Z,10.40
2019-04-04T11:16:29.978Z,13.22
2019-04-04T11:18:51.363Z,9.95
2019-04-04T11:21:19.771Z,13.40
2019-04-04T11:23:48.205Z,17.98
2019-04-04T11:26:16.770Z,11.60
2019-04-04T11:28:45.279Z,10.60
2019-04-04T11:31:13.720Z,11.40
2019-04-04T11:33:42.218Z,21.25
2019-04-04T11:36:12.032Z,21.62
2019-04-04T11:38:40.564Z,13.48
2019-04-04T11:41:09.108Z,9.48
2019-04-04T11:43:37.592Z,8.58
2019-04-04T11:46:06.344Z,21.07
2019-04-04T11:48:34.956Z,11.10
2019-04-04T11:51:03.448Z,14.45
2019-04-04T11:53:32.271Z,9.80
2019-04-04T11:56:00.883Z,9.75
2019-04-04T11:58:29.384Z,16.17
2019-04-04T12:00:59.499Z,11.85
2019-04-04T12:03:27.956Z,9.48
2019-04-04T12:05:56.560Z,10.93
2019-04-04T12:08:25.013Z,13.05
2019-04-04T12:10:53.507Z,9.38
2019-04-04T12:13:21.995Z,18.73
2019-04-04T12:15:52.166Z,25.05
2019-04-04T12:18:20.671Z,14.53
2019-04-04T12:20:49.280Z,22.95
2019-04-04T12:23:17.839Z,10.30
2019-04-04T12:25:46.268Z,29.20
2019-04-04T12:28:14.788Z,24.47
2019-04-04T12:30:43.295Z,15.03
2019-04-04T12:33:11.847Z,17.02
2019-04-04T12:35:40.356Z,15.63
2019-04-04T12:38:08.844Z,13.30
2019-04-04T12:40:37.297Z,23.70
2019-04-04T12:43:05.796Z,21.57
2019-04-04T12:45:34.235Z,14.10
2019-04-04T12:48:02.735Z,15.88
2019-04-04T12:50:31.187Z,12.35
2019-04-04T12:52:59.796Z,20.88
2019-04-04T12:55:28.290Z,10.65
2019-04-04T12:57:56.884Z,16.85
2019-04-04T13:00:25.310Z,13.72
2019-04-04T13:02:53.901Z,15.35
2019-04-04T13:05:22.485Z,21.05
2019-04-04T13:07:50.991Z,10.80
2019-04-04T13:10:32.073Z,12.25
2019-04-04T13:12:49.663Z,20.23
2019-04-04T13:15:19.721Z,33.92
2019-04-04T13:17:48.256Z,14.93
2019-04-04T13:20:16.740Z,20.27
2019-04-04T13:22:45.251Z,18.17
2019-04-04T13:25:13.684Z,13.28
2019-04-04T13:27:42.181Z,17.30
2019-04-04T13:30:11.263Z,9.55
2019-04-04T13:32:40.812Z,8.90
2019-04-04T13:35:09.382Z,10.90
2019-04-04T13:37:39.907Z,13.83
2019-04-04T13:40:09.188Z,11.48
2019-04-04T13:42:37.684Z,19.12
2019-04-04T13:45:06.418Z,14.65
2019-04-04T13:47:38.208Z,19.50
2019-04-04T13:50:08.632Z,17.45
2019-04-04T13:52:37.129Z,11.15
2019-04-04T13:55:06.512Z,13.40
2019-04-04T13:57:34.983Z,10.28
2019-04-04T14:00:08.801Z,19.98
2019-04-04T14:02:37.264Z,18.17
2019-04-04T14:05:10.096Z,17.45
2019-04-04T14:07:43.283Z,8.95
2019-04-04T14:10:09.163Z,14.65
2019-04-04T14:12:37.634Z,11.50
2019-04-04T14:15:09.188Z,15.80
2019-04-04T14:17:37.770Z,13.70
2019-04-04T14:20:08.497Z,12.40
2019-04-04T14:22:37.433Z,12.43
2019-04-04T14:25:06.096Z,14.10
2019-04-04T14:27:34.676Z,16.60
2019-04-04T14:30:03.333Z,14.65
2019-04-04T14:32:31.767Z,14.15
2019-04-04T14:35:02.673Z,13.58
2019-04-04T14:37:31.307Z,16.93
2019-04-04T14:39:59.939Z,13.35
2019-04-04T14:42:28.417Z,22.62
2019-04-04T14:44:56.913Z,12.03
2019-04-04T14:47:25.375Z,26.12
2019-04-04T14:49:55.162Z,19.05
2019-04-04T14:52:24.294Z,16.23
2019-04-04T14:54:52.971Z,14.43
2019-04-04T14:57:21.443Z,13.48
2019-04-04T14:59:49.919Z,18.90
2019-04-04T15:02:18.500Z,11.73
2019-04-04T15:04:46.908Z,11.28
2019-04-04T15:07:15.356Z,14.28
2019-04-04T15:09:43.914Z,18.20
2019-04-04T15:12:12.359Z,14.55
2019-04-04T15:14:40.971Z,24.30
2019-04-04T15:17:09.481Z,16.50
2019-04-04T15:19:38.451Z,11.78
2019-04-04T15:22:07.887Z,11.43
2019-04-04T15:24:36.319Z,13.65
2019-04-04T15:27:07.182Z,21.40
2019-04-04T15:29:35.764Z,11.43
2019-04-04T15:32:04.346Z,15.88
2019-04-04T15:34:32.837Z,10.23
2019-04-04T15:37:01.405Z,16.15
2019-04-04T15:39:29.853Z,12.85
2019-04-04T15:41:58.464Z,14.07
2019-04-04T15:44:26.948Z,14.23
2019-04-04T15:46:55.496Z,17.90
2019-04-04T15:49:25.325Z,11.35
2019-04-04T15:51:53.917Z,16.57
2019-04-04T15:54:22.331Z,8.98
2019-04-04T15:56:50.875Z,17.82
2019-04-04T15:59:19.354Z,15.13
2019-04-04T16:01:47.912Z,15.65
2019-04-04T16:04:16.414Z,14.38
2019-04-04T16:06:44.994Z,10.78
2019-04-04T16:09:13.548Z,12.58
2019-04-04T16:11:49.255Z,12.85
2019-04-04T16:14:12.250Z,14.50
2019-04-04T16:16:40.696Z,8.95
2019-04-04T16:19:09.236Z,12.90
2019-04-04T16:21:37.712Z,14.40
2019-04-04T16:24:06.294Z,10.13
2019-04-04T16:26:34.696Z,17.12
2019-04-04T16:29:03.735Z,12.82
2019-04-04T16:31:34.465Z,18.95
2019-04-04T16:34:02.400Z,13.15
2019-04-04T16:36:30.942Z,13.13
2019-04-04T16:38:59.491Z,9.90
2019-04-04T16:41:28.006Z,15.48
2019-04-04T16:43:58.330Z,13.43
2019-04-04T16:46:26.789Z,15.80
2019-04-04T16:48:55.291Z,16.02
2019-04-04T16:51:23.764Z,23.60
2019-04-04T16:53:52.320Z,24.00
2019-04-04T16:56:20.795Z,14.30
2019-04-04T16:58:49.410Z,13.38
2019-04-04T17:01:21.261Z,11.63
2019-04-04T17:04:01.071Z,18.15
2019-04-04T17:06:19.932Z,19.20
2019-04-04T17:08:48.443Z,20.32
2019-04-04T17:11:17.018Z,25.40
2019-04-04T17:13:45.573Z,21.57
2019-04-04T17:16:14.052Z,23.50
2019-04-04T17:18:42.574Z,24.90
2019-04-04T17:21:11.074Z,14.75
2019-04-04T17:23:39.581Z,27.90
2019-04-04T17:26:08.011Z,20.57
2019-04-04T17:28:36.524Z,15.43
2019-04-04T17:31:08.205Z,18.67
2019-04-04T17:33:35.124Z,12.20
2019-04-04T17:36:03.659Z,16.23
2019-04-04T17:38:32.063Z,20.88
2019-04-04T17:41:00.608Z,19.42
2019-04-04T17:43:29.062Z,15.20
2019-04-04T17:45:57.753Z,28.07
2019-04-04T17:48:26.631Z,17.07
2019-04-04T17:50:56.588Z,18.98
2019-04-04T17:53:25.042Z,27.17
2019-04-04T17:55:56.000Z,18.07
2019-04-04T17:58:25.350Z,21.55
2019-04-04T18:00:53.971Z,25.50
2019-04-04T18:03:22.635Z,11.45
2019-04-04T18:05:55.121Z,20.57
2019-04-04T18:08:25.244Z,19.32
2019-04-04T18:10:53.834Z,21.33
2019-04-04T18:13:22.274Z,18.27
2019-04-04T18:15:50.887Z,15.58
2019-04-04T18:18:19.335Z,24.43
2019-04-04T18:20:47.823Z,15.03
2019-04-04T18:23:16.327Z,18.98
2019-04-04T18:25:44.799Z,18.77
2019-04-04T18:28:13.284Z,15.48
2019-04-04T18:30:41.800Z,17.80
2019-04-04T18:33:10.529Z,18.98
2019-04-04T18:35:39.232Z,21.52
2019-04-04T18:38:07.886Z,26.82
2019-04-04T18:40:36.429Z,27.50
2019-04-04T18:43:05.190Z,28.55
2019-04-04T18:45:33.860Z,29.10
2019-04-04T18:48:04.178Z,18.45
2019-04-04T18:50:32.663Z,23.22
2019-04-04T18:53:01.158Z,19.42
2019-04-04T18:55:33.051Z,23.32
2019-04-04T19:00:29.363Z,20.00
2019-04-04T19:02:57.896Z,26.17
2019-04-04T19:05:26.336Z,21.27
2019-04-04T19:07:54.768Z,19.65
2019-04-04T19:10:23.363Z,23.83
2019-04-04T19:12:51.943Z,29.87
2019-04-04T19:15:20.523Z,37.70
2019-04-04T19:17:48.986Z,33.50
2019-04-04T19:20:17.556Z,27.52
2019-04-04T19:22:46.039Z,18.77
2019-04-04T19:25:16.367Z,24.40
2019-04-04T19:27:44.874Z,22.65
2019-04-04T19:30:13.560Z,18.98
2019-04-04T19:32:42.099Z,21.55
2019-04-04T19:35:12.449Z,22.85
2019-04-04T19:37:40.903Z,23.90
2019-04-04T19:40:09.512Z,33.00
2019-04-04T19:42:37.965Z,26.42
2019-04-04T19:45:08.308Z,25.25
2019-04-04T19:47:36.803Z,27.00
2019-04-04T19:50:08.471Z,26.25
2019-04-04T19:52:37.103Z,28.90
2019-04-04T19:55:05.888Z,31.68
2019-04-04T19:57:34.392Z,26.77
2019-04-04T20:00:04.047Z,27.07
2019-04-04T20:02:32.580Z,23.50
2019-04-04T20:05:01.160Z,24.98
2019-04-04T20:07:29.639Z,23.70
2019-04-04T20:09:58.119Z,32.67
2019-04-04T20:12:30.067Z,29.65
2019-04-04T20:14:58.534Z,29.55
2019-04-04T20:17:27.139Z,34.08
2019-04-04T20:19:55.621Z,57.90
2019-04-04T20:22:24.082Z,39.30
2019-04-04T20:24:53.486Z,40.15
2019-04-04T20:27:21.927Z,42.75
2019-04-04T20:29:51.346Z,47.67
2019-04-04T20:32:19.940Z,45.78
2019-04-04T20:34:48.416Z,47.33
2019-04-04T20:37:16.996Z,47.38
2019-04-04T20:39:45.487Z,42.88
2019-04-04T20:42:13.988Z,46.98
2019-04-04T20:44:42.558Z,33.73
2019-04-04T20:47:10.995Z,37.98
2019-04-04T20:49:39.429Z,29.72
2019-04-04T20:52:07.994Z,31.87
2019-04-04T20:54:36.475Z,28.45
2019-04-04T20:57:05.055Z,23.45
2019-04-04T20:59:33.624Z,25.35
2019-04-04T21:02:02.218Z,26.37
2019-04-04T21:04:30.646Z,29.98
2019-04-04T21:06:59.298Z,44.55
2019-04-04T21:09:27.749Z,45.78
2019-04-04T21:11:56.155Z,42.05
2019-04-04T21:14:25.436Z,40.70
2019-04-04T21:16:53.935Z,33.45
2019-04-04T21:19:22.371Z,35.83
2019-04-04T21:21:50.943Z,30.10
2019-04-04T21:24:19.450Z,27.50
2019-04-04T21:26:48.035Z,28.52
2019-04-04T21:29:16.587Z,24.70
2019-04-04T21:31:45.048Z,24.63
2019-04-04T21:34:13.672Z,26.55
2019-04-04T21:36:42.128Z,23.98
2019-04-04T21:39:12.455Z,26.65
2019-04-04T21:41:40.925Z,33.45
2019-04-04T21:44:09.548Z,32.67
2019-04-04T21:46:37.985Z,35.50
2019-04-04T21:49:06.564Z,28.95
2019-04-04T21:51:35.078Z,26.87
2019-04-04T21:54:03.531Z,26.35
2019-04-04T21:56:32.030Z,30.97
2019-04-04T21:59:00.409Z,34.05
2019-04-04T22:01:28.847Z,28.40
2019-04-04T22:03:57.466Z,25.45
2019-04-04T22:06:25.885Z,23.80
2019-04-04T22:08:56.220Z,23.10
2019-04-04T22:11:24.745Z,23.67
2019-04-04T22:13:53.309Z,29.15
2019-04-04T22:16:23.463Z,28.52
2019-04-04T22:18:51.944Z,26.33
2019-04-04T22:21:20.479Z,23.77
2019-04-04T22:23:49.063Z,27.02
2019-04-04T22:26:17.566Z,25.40
2019-04-04T22:28:46.121Z,23.62
2019-04-04T22:31:14.630Z,23.32
2019-04-04T22:33:43.076Z,26.68
2019-04-04T22:36:15.008Z,23.30
2019-04-04T22:41:15.392Z,21.37
2019-04-04T22:43:43.884Z,22.67
2019-04-04T22:46:12.363Z,20.85
2019-04-04T22:48:40.790Z,19.50
2019-04-04T22:51:10.400Z,16.52
2019-04-04T22:53:38.894Z,19.60
2019-04-04T22:56:07.325Z,22.25
2019-04-04T22:58:38.004Z,17.48
2019-04-04T23:01:07.491Z,21.60
2019-04-04T23:03:35.983Z,18.73
2019-04-04T23:06:04.483Z,19.95
2019-04-04T23:08:32.944Z,20.55
2019-04-04T23:11:01.553Z,21.35
2019-04-04T23:13:29.951Z,15.58
2019-04-04T23:15:58.455Z,20.40
2019-04-04T23:18:27.208Z,21.15
2019-04-04T23:20:56.032Z,15.75
2019-04-04T23:23:24.721Z,17.32
2019-04-04T23:25:53.472Z,17.40
2019-04-04T23:28:23.156Z,18.85
2019-04-04T23:30:51.915Z,17.95
2019-04-04T23:33:20.671Z,19.85
2019-04-04T23:35:49.592Z,21.50
2019-04-04T23:38:20.353Z,16.32
2019-04-04T23:40:50.935Z,20.65
2019-04-04T23:43:19.334Z,21.27
2019-04-04T23:45:48.144Z,17.52
2019-04-04T23:48:16.863Z,24.20
2019-04-04T23:50:45.718Z,23.30
2019-04-04T23:53:15.634Z,19.30
2019-04-04T23:55:44.499Z,15.95
2019-04-04T23:58:13.256Z,17.37
